RCFN

Taitung Airport

Taitung City, Taiwan
TAF RCFN 252300Z 2600/2624 35005KT 9999 FEW015 BKN020 BKN040 BECMG 2600/2602 08005KT FEW020 BKN032 TEMPO 2608/2613 01007KT FEW010 BKN018 BKN040 BECMG 2613/2615 34005KT
Issued Valid From Valid To
Apr-25 @ 23:00 UTC
(4 hours ago)
Apr-26 @ 00:00 UTC
(3 hours ago)
Apr-27 @ 00:00 UTC
(in 21 hours)
Apr-26 @ 00:00 to Apr-27 @ 00:00
TAF RCFN 252300Z 2600/2624 35005KT 9999 FEW015 BKN020 BKN040
Wind Visibility Clouds
350° at 5 knots 10,000+ meters
  • Few at 1,500' AGL
  • Broken at 2,000' AGL
  • Broken at 4,000' AGL
Becoming Apr-26 @ 00:00 to Apr-26 @ 13:00
BECMG 2600/2602 08005KT FEW020 BKN032
Wind Visibility Clouds
80° at 5 knots 10,000+ meters
  • Few at 2,000' AGL
  • Broken at 3,200' AGL
Temporary Apr-26 @ 08:00 to Apr-26 @ 13:00
TEMPO 2608/2613 01007KT FEW010 BKN018 BKN040
Wind Clouds
10° at 7 knots
  • Few at 1,000' AGL
  • Broken at 1,800' AGL
  • Broken at 4,000' AGL
Becoming Apr-26 @ 13:00 to Apr-27 @ 00:00
BECMG 2613/2615 34005KT
Wind Visibility Clouds
340° at 5 knots 10,000+ meters
  • Few at 2,000' AGL
  • Broken at 3,200' AGL
TAF RCFN 252300Z 2600/2624 35005KT 9999 FEW015 BKN020 BKN040 BECMG 2600/2602 08005KT FEW020 BKN032 TEMPO 2608/2613 01007KT FEW010 BKN018 BKN040 BECMG 2613/2615 34005KT
Issued Apr-25 @ 23:00 UTC
(4 hours ago)
Valid From Apr-26 @ 00:00 UTC
(3 hours ago)
Valid To Apr-27 @ 00:00 UTC
(in 21 hours)
Apr-26 @ 00:00 - Apr-27 @ 00:00
Wind Visibility
350° at 5 knots 10,000+ meters
Clouds
  • Few at 1,500' AGL
  • Broken at 2,000' AGL
  • Broken at 4,000' AGL
Becoming Apr-26 @ 00:00 - Apr-26 @ 13:00
Wind Visibility
80° at 5 knots 10,000+ meters
Clouds
  • Few at 2,000' AGL
  • Broken at 3,200' AGL
Temporary Apr-26 @ 08:00 - Apr-26 @ 13:00
Wind
10° at 7 knots
Clouds
  • Few at 1,000' AGL
  • Broken at 1,800' AGL
  • Broken at 4,000' AGL
Becoming Apr-26 @ 13:00 - Apr-27 @ 00:00
Wind Visibility
340° at 5 knots 10,000+ meters
Clouds
  • Few at 2,000' AGL
  • Broken at 3,200' AGL